Kragnes, Minnesota
Current Conditions -  °F | °C
As of 9:53 AM on Sunday 23 Nov 2014 (Local Time) from KFAR Reporting Station
Light Rain Light Rain  
Wind Chill: 35°   Ceiling: 4000
Heat Index: 39°   Visibility: 8mi
Dew Point: 35°   Wind: 6mph
Humidity: 86%   Direction: 220°SW
Pressure: 29.43"   Gusts: NA
Location:  46.9239°N, 96.7135°W
Report Text: KFAR 231553Z 22005KT 8SM -RA BKN040 OVC095 04/02 A2943 RMK AO2 RAE31B49 SLP974 P0001 T00390017
Loading
Personal Weather Stations






























Interactive Weather Map New forecast layout! Learn more

10-Day Weather Forecast

Advertisements
Track Severe Weather on mobile